createdAt,value
2022-11-24T00:01:16.342Z,6.80
2022-11-24T00:03:45.150Z,6.80
2022-11-24T00:06:15.881Z,6.90
2022-11-24T00:08:44.694Z,6.90
2022-11-24T00:11:14.855Z,6.90
2022-11-24T00:13:42.271Z,6.90
2022-11-24T00:16:33.587Z,6.90
2022-11-24T00:19:02.542Z,6.90
2022-11-24T00:21:30.374Z,6.90
2022-11-24T00:23:57.607Z,6.80
2022-11-24T00:26:32.523Z,6.80
2022-11-24T00:29:01.753Z,6.80
2022-11-24T00:31:29.693Z,6.90
2022-11-24T00:33:58.951Z,6.90
2022-11-24T00:36:30.547Z,6.80
2022-11-24T00:39:03.167Z,6.80
2022-11-24T00:41:31.267Z,6.80
2022-11-24T00:43:58.543Z,6.80
2022-11-24T00:46:26.363Z,6.80
2022-11-24T00:48:53.906Z,6.70
2022-11-24T00:51:22.862Z,6.70
2022-11-24T00:53:49.741Z,6.70
2022-11-24T00:56:16.705Z,6.70
2022-11-24T00:58:43.378Z,6.70
2022-11-24T01:01:19.082Z,6.70
2022-11-24T01:03:47.370Z,6.70
2022-11-24T01:06:32.853Z,6.70
2022-11-24T01:08:59.623Z,6.70
2022-11-24T01:11:29.184Z,6.70
2022-11-24T01:13:58.509Z,6.70
2022-11-24T01:16:31.450Z,6.80
2022-11-24T01:18:58.679Z,6.70
2022-11-24T01:21:25.633Z,6.70
2022-11-24T01:23:52.350Z,6.70
2022-11-24T01:26:21.587Z,6.60
2022-11-24T01:28:52.167Z,6.50
2022-11-24T01:31:18.864Z,6.50
2022-11-24T01:33:45.651Z,6.50
2022-11-24T01:36:12.450Z,6.50
2022-11-24T01:38:39.144Z,6.50
2022-11-24T01:41:12.518Z,6.50
2022-11-24T01:43:39.768Z,6.50
2022-11-24T01:46:19.320Z,6.50
2022-11-24T01:49:25.296Z,6.50
2022-11-24T01:51:59.514Z,6.50
2022-11-24T01:54:33.532Z,6.50
2022-11-24T01:57:28.291Z,6.60
2022-11-24T02:00:03.498Z,6.60
2022-11-24T02:02:30.452Z,6.60
2022-11-24T02:05:03.168Z,6.60
2022-11-24T02:07:30.809Z,6.60
2022-11-24T02:10:04.650Z,6.60
2022-11-24T02:12:32.202Z,6.50
2022-11-24T02:14:59.337Z,6.50
2022-11-24T02:17:26.062Z,6.50
2022-11-24T02:20:01.340Z,6.60
2022-11-24T02:22:27.997Z,6.60
2022-11-24T02:25:22.917Z,6.60
2022-11-24T02:27:53.840Z,6.60
2022-11-24T02:30:21.290Z,6.60
2022-11-24T02:32:48.002Z,6.60
2022-11-24T02:35:15.092Z,6.60
2022-11-24T02:37:41.776Z,6.70
2022-11-24T02:40:09.138Z,6.70
2022-11-24T02:42:42.886Z,6.70
2022-11-24T02:45:11.329Z,6.70
2022-11-24T02:47:38.088Z,6.70
2022-11-24T02:50:05.197Z,6.80
2022-11-24T02:52:31.892Z,6.80
2022-11-24T02:54:58.572Z,6.80
2022-11-24T02:57:25.266Z,6.80
2022-11-24T02:59:51.943Z,6.80
2022-11-24T03:02:18.726Z,6.80
2022-11-24T03:04:45.463Z,6.80
2022-11-24T03:07:12.223Z,6.80
2022-11-24T03:09:38.971Z,6.80
2022-11-24T03:12:05.871Z,6.80
2022-11-24T03:14:33.082Z,6.80
2022-11-24T03:16:59.911Z,6.80
2022-11-24T03:19:26.587Z,6.80
2022-11-24T03:21:53.314Z,6.90
2022-11-24T03:24:20.018Z,6.90
2022-11-24T03:26:46.702Z,6.90
2022-11-24T03:29:13.400Z,6.90
2022-11-24T03:31:40.201Z,6.90
2022-11-24T03:34:06.956Z,6.90
2022-11-24T03:36:33.658Z,6.90
2022-11-24T03:39:00.411Z,6.90
2022-11-24T03:41:27.125Z,6.90
2022-11-24T03:43:53.790Z,6.90
2022-11-24T03:46:20.515Z,6.90
2022-11-24T03:48:47.347Z,6.90
2022-11-24T03:51:14.051Z,6.90
2022-11-24T03:53:40.813Z,6.90
2022-11-24T03:56:07.611Z,6.90
2022-11-24T03:58:34.320Z,7.00
2022-11-24T04:01:01.083Z,7.00
2022-11-24T04:03:27.978Z,7.00
2022-11-24T04:05:54.701Z,7.00
2022-11-24T04:08:21.584Z,6.90
2022-11-24T04:10:52.868Z,6.90
2022-11-24T04:13:22.660Z,6.80
2022-11-24T04:15:49.534Z,6.80
2022-11-24T04:18:16.607Z,6.80
2022-11-24T04:20:43.694Z,6.80
2022-11-24T04:23:10.816Z,6.70
2022-11-24T04:25:37.983Z,6.60
2022-11-24T04:28:04.837Z,6.60
2022-11-24T04:30:31.866Z,6.60
2022-11-24T04:32:58.873Z,6.50
2022-11-24T04:35:25.669Z,6.50
2022-11-24T04:37:52.420Z,6.50
2022-11-24T04:40:19.966Z,6.60
2022-11-24T04:42:56.056Z,6.60
2022-11-24T04:45:23.788Z,6.60
2022-11-24T04:47:50.573Z,6.60
2022-11-24T04:50:17.986Z,6.70
2022-11-24T04:52:44.909Z,6.70
2022-11-24T04:55:11.835Z,6.80
2022-11-24T04:57:38.952Z,6.80
2022-11-24T05:00:06.591Z,6.90
2022-11-24T05:02:33.318Z,6.90
2022-11-24T05:05:00.103Z,6.90
2022-11-24T05:07:26.909Z,7.00
2022-11-24T05:10:12.358Z,7.00
2022-11-24T05:12:39.530Z,7.00
2022-11-24T05:15:07.038Z,7.00
2022-11-24T05:17:37.259Z,7.00
2022-11-24T05:20:05.941Z,7.00
2022-11-24T05:22:32.951Z,7.00
2022-11-24T05:24:59.725Z,7.10
2022-11-24T05:27:26.442Z,7.00
2022-11-24T05:29:53.174Z,7.00
2022-11-24T05:32:20.233Z,7.10
2022-11-24T05:34:46.970Z,7.10
2022-11-24T05:37:13.653Z,7.10
2022-11-24T05:39:40.399Z,7.10
2022-11-24T05:42:26.526Z,7.10
2022-11-24T05:44:53.497Z,7.10
2022-11-24T05:47:21.253Z,7.10
2022-11-24T05:49:47.978Z,7.10
2022-11-24T05:52:15.328Z,7.10
2022-11-24T05:54:42.014Z,7.20
2022-11-24T05:57:08.718Z,7.20
2022-11-24T05:59:35.413Z,7.20
2022-11-24T06:02:02.346Z,7.20
2022-11-24T06:04:29.138Z,7.20
2022-11-24T06:06:55.854Z,7.30
2022-11-24T06:09:22.522Z,7.30
2022-11-24T06:11:49.374Z,7.30
2022-11-24T06:14:16.082Z,7.30
2022-11-24T06:16:42.906Z,7.20
2022-11-24T06:19:10.907Z,7.30
2022-11-24T06:21:37.787Z,7.30
2022-11-24T06:24:05.414Z,7.30
2022-11-24T06:26:32.130Z,7.30
2022-11-24T06:28:58.952Z,7.30
2022-11-24T06:31:25.989Z,7.30
2022-11-24T06:33:53.228Z,7.30
2022-11-24T06:36:20.418Z,7.30
2022-11-24T06:38:47.153Z,7.40
2022-11-24T06:41:15.835Z,7.40
2022-11-24T06:43:42.801Z,7.40
2022-11-24T06:46:10.451Z,7.40
2022-11-24T06:48:37.571Z,7.40
2022-11-24T06:51:10.587Z,7.40
2022-11-24T06:53:38.702Z,7.40
2022-11-24T06:56:12.138Z,7.40
2022-11-24T06:58:44.722Z,7.30
2022-11-24T07:01:37.938Z,7.40
2022-11-24T07:04:04.880Z,7.40
2022-11-24T07:06:31.596Z,7.40
2022-11-24T07:08:58.304Z,7.40
2022-11-24T07:11:25.002Z,7.40
2022-11-24T07:13:56.533Z,7.40
2022-11-24T07:16:27.159Z,7.50
2022-11-24T07:18:54.852Z,7.50
2022-11-24T07:21:23.346Z,7.50
2022-11-24T07:23:54.292Z,7.50
2022-11-24T07:26:21.626Z,7.60
2022-11-24T07:28:48.962Z,7.60
2022-11-24T07:31:19.171Z,7.60
2022-11-24T07:33:49.751Z,7.50
2022-11-24T07:36:16.594Z,7.50
2022-11-24T07:38:43.320Z,7.40
2022-11-24T07:41:12.531Z,7.40
2022-11-24T07:43:39.711Z,7.40
2022-11-24T07:46:09.736Z,7.70
2022-11-24T07:48:36.855Z,7.80
2022-11-24T07:51:04.520Z,7.90
2022-11-24T07:53:31.760Z,8.10
2022-11-24T07:56:00.982Z,8.20
2022-11-24T07:58:33.488Z,8.40
2022-11-24T08:01:01.176Z,8.30
2022-11-24T08:03:28.269Z,8.30
2022-11-24T08:08:43.299Z,8.30
2022-11-24T08:11:12.798Z,8.30
2022-11-24T08:13:40.065Z,8.30
2022-11-24T08:16:09.135Z,8.40
2022-11-24T08:18:37.317Z,8.50
2022-11-24T08:21:05.382Z,8.50
2022-11-24T08:23:32.511Z,8.70
2022-11-24T08:26:04.974Z,9.10
2022-11-24T08:28:32.242Z,9.70
2022-11-24T08:31:04.110Z,10.20
2022-11-24T08:33:31.065Z,10.50
2022-11-24T08:36:06.558Z,10.50
2022-11-24T08:38:33.700Z,10.50
2022-11-24T08:41:05.244Z,10.30
2022-11-24T08:43:32.540Z,10.20
2022-11-24T08:46:04.438Z,10.20
2022-11-24T08:48:31.700Z,10.30
2022-11-24T08:50:59.010Z,10.30
2022-11-24T08:53:26.102Z,10.30
2022-11-24T08:55:52.833Z,10.30
2022-11-24T08:58:19.654Z,10.30
2022-11-24T09:00:46.370Z,10.60
2022-11-24T09:03:13.148Z,10.90
2022-11-24T09:05:55.213Z,11.50
2022-11-24T09:08:21.920Z,12.20
2022-11-24T09:10:48.610Z,12.60
2022-11-24T09:13:15.278Z,12.50
2022-11-24T09:15:42.026Z,12.20
2022-11-24T09:18:08.743Z,11.80
2022-11-24T09:20:35.565Z,11.40
2022-11-24T09:23:02.342Z,11.10
2022-11-24T09:25:29.104Z,10.90
2022-11-24T09:27:56.443Z,10.90
2022-11-24T09:30:23.330Z,10.80
2022-11-24T09:32:50.047Z,10.80
2022-11-24T09:35:16.881Z,10.70
2022-11-24T09:37:45.658Z,10.60
2022-11-24T09:40:14.259Z,10.60
2022-11-24T09:42:54.671Z,10.60
2022-11-24T09:46:03.953Z,10.50
2022-11-24T09:48:41.970Z,10.50
2022-11-24T09:51:12.648Z,10.50
2022-11-24T09:53:45.432Z,10.50
2022-11-24T09:56:21.245Z,10.50
2022-11-24T09:59:06.365Z,10.60
2022-11-24T10:01:40.223Z,10.70
2022-11-24T10:04:27.330Z,10.90
2022-11-24T10:07:12.664Z,11.10
2022-11-24T10:10:13.827Z,11.20
2022-11-24T10:12:59.263Z,11.30
2022-11-24T10:16:07.448Z,11.30
2022-11-24T10:18:42.908Z,11.20
2022-11-24T10:21:12.600Z,11.10
2022-11-24T10:23:57.194Z,11.00
2022-11-24T10:26:38.631Z,10.80
2022-11-24T10:29:30.640Z,10.60
2022-11-24T10:31:59.803Z,10.40
2022-11-24T10:34:51.764Z,10.10
2022-11-24T10:37:37.284Z,9.90
2022-11-24T10:40:33.350Z,9.60
2022-11-24T10:43:01.205Z,9.40
2022-11-24T10:45:29.297Z,9.20
2022-11-24T10:47:58.594Z,9.00
2022-11-24T10:50:35.651Z,8.80
2022-11-24T10:53:23.252Z,8.60
2022-11-24T10:55:56.431Z,8.40
2022-11-24T10:58:24.799Z,8.20
2022-11-24T11:00:51.535Z,8.10
2022-11-24T11:03:40.989Z,7.90
2022-11-24T11:06:13.904Z,7.80
2022-11-24T11:08:40.820Z,7.80
2022-11-24T11:11:21.083Z,7.70
2022-11-24T11:13:58.159Z,7.70
2022-11-24T11:16:38.105Z,7.70
2022-11-24T11:19:47.994Z,7.70
2022-11-24T11:22:13.129Z,7.70
2022-11-24T11:24:42.296Z,7.80
2022-11-24T11:27:24.768Z,7.90
2022-11-24T11:35:42.341Z,7.90
2022-11-24T11:38:11.535Z,7.90
2022-11-24T11:40:42.714Z,7.90
2022-11-24T11:43:24.433Z,7.90
2022-11-24T11:46:20.517Z,7.90
2022-11-24T11:48:47.949Z,8.00
2022-11-24T11:51:30.216Z,8.00
2022-11-24T11:54:23.838Z,8.00
2022-11-24T11:57:02.695Z,8.00
2022-11-24T11:59:29.494Z,8.00
2022-11-24T12:02:24.638Z,7.90
2022-11-24T12:05:01.172Z,7.90
2022-11-24T12:08:06.423Z,8.00
2022-11-24T12:10:36.152Z,8.00
2022-11-24T12:13:23.877Z,8.10
2022-11-24T12:15:54.443Z,8.10
2022-11-24T12:18:57.012Z,8.20
2022-11-24T12:21:52.733Z,8.20
2022-11-24T12:24:35.387Z,8.20
2022-11-24T12:27:31.334Z,8.20
2022-11-24T12:30:10.830Z,8.10
2022-11-24T12:32:55.122Z,8.10
2022-11-24T12:35:52.040Z,8.00
2022-11-24T12:38:25.038Z,8.00
2022-11-24T12:44:27.848Z,8.00
2022-11-24T12:47:03.974Z,8.00
2022-11-24T12:49:45.938Z,8.10
2022-11-24T12:52:33.735Z,8.20
2022-11-24T12:55:01.443Z,8.30
2022-11-24T12:57:46.309Z,8.40
2022-11-24T13:00:29.458Z,8.50
2022-11-24T13:03:31.145Z,8.50
2022-11-24T13:06:03.013Z,8.50
2022-11-24T13:08:30.986Z,8.50
2022-11-24T13:11:22.901Z,8.40
2022-11-24T13:14:12.771Z,8.40
2022-11-24T13:17:28.040Z,8.40
2022-11-24T13:19:46.551Z,8.40
2022-11-24T13:22:24.134Z,8.40
2022-11-24T13:25:14.200Z,8.40
2022-11-24T13:27:43.915Z,8.30
2022-11-24T13:30:35.846Z,8.30
2022-11-24T13:33:16.590Z,8.20
2022-11-24T13:36:07.838Z,8.20
2022-11-24T13:38:52.825Z,8.10
2022-11-24T13:41:31.984Z,8.10
2022-11-24T13:44:14.707Z,8.00
2022-11-24T13:47:05.589Z,8.10
2022-11-24T13:49:43.683Z,8.00
2022-11-24T13:52:35.523Z,8.10
2022-11-24T13:55:24.770Z,8.20
2022-11-24T13:58:18.409Z,8.30
2022-11-24T14:01:22.740Z,8.30
2022-11-24T14:04:30.684Z,8.30
2022-11-24T14:07:13.056Z,8.20
2022-11-24T14:09:50.185Z,8.10
2022-11-24T14:12:21.390Z,8.00
2022-11-24T14:14:51.147Z,7.90
2022-11-24T14:17:23.407Z,7.80
2022-11-24T14:19:55.562Z,7.80
2022-11-24T14:22:40.326Z,7.70
2022-11-24T14:25:26.659Z,7.60
2022-11-24T14:27:53.659Z,7.50
2022-11-24T14:30:22.600Z,7.40
2022-11-24T14:32:57.753Z,7.40
2022-11-24T14:35:30.839Z,7.40
2022-11-24T14:37:58.051Z,7.30
2022-11-24T14:40:41.717Z,7.20
2022-11-24T14:43:23.684Z,7.20
2022-11-24T14:46:00.960Z,7.30
2022-11-24T14:48:36.098Z,7.30
2022-11-24T14:51:16.789Z,7.30
2022-11-24T14:53:45.683Z,7.40
2022-11-24T14:56:27.502Z,7.50
2022-11-24T14:58:55.734Z,7.60
2022-11-24T15:01:28.672Z,7.60
2022-11-24T15:07:27.329Z,7.70
2022-11-24T15:09:58.025Z,7.70
2022-11-24T15:12:31.618Z,7.70
2022-11-24T15:15:02.486Z,7.60
2022-11-24T15:17:30.547Z,7.60
2022-11-24T15:19:57.183Z,7.50
2022-11-24T15:22:41.575Z,7.50
2022-11-24T15:25:34.051Z,7.40
2022-11-24T15:28:01.284Z,7.30
2022-11-24T15:30:28.410Z,7.10
2022-11-24T15:32:57.666Z,7.00
2022-11-24T15:35:26.851Z,6.90
2022-11-24T15:37:53.540Z,6.70
2022-11-24T15:40:20.395Z,6.60
2022-11-24T15:42:52.525Z,6.50
2022-11-24T15:45:20.883Z,6.40
2022-11-24T15:47:47.677Z,6.20
2022-11-24T15:50:15.176Z,6.20
2022-11-24T15:52:42.847Z,6.10
2022-11-24T15:55:21.134Z,6.00
2022-11-24T15:57:48.777Z,5.90
2022-11-24T16:00:21.011Z,5.80
2022-11-24T16:02:48.266Z,5.70
2022-11-24T16:05:16.037Z,5.70
2022-11-24T16:07:43.579Z,5.60
2022-11-24T16:10:31.879Z,5.50
2022-11-24T16:12:58.603Z,5.40
2022-11-24T16:15:25.461Z,5.30
2022-11-24T16:17:52.271Z,5.30
2022-11-24T16:20:19.718Z,5.30
2022-11-24T16:22:46.549Z,5.30
2022-11-24T16:25:13.864Z,5.30
2022-11-24T16:27:40.843Z,5.30
2022-11-24T16:30:09.099Z,5.20
2022-11-24T16:32:35.946Z,5.20
2022-11-24T16:35:02.720Z,5.10
2022-11-24T16:37:29.468Z,5.10
2022-11-24T16:39:56.226Z,5.00
2022-11-24T16:42:23.215Z,5.10
2022-11-24T16:44:51.901Z,5.00
2022-11-24T16:47:18.989Z,5.00
2022-11-24T16:49:48.874Z,5.00
2022-11-24T16:52:16.523Z,5.00
2022-11-24T16:54:43.315Z,5.00
2022-11-24T16:57:14.931Z,5.00
2022-11-24T16:59:43.459Z,5.00
2022-11-24T17:02:12.670Z,5.00
2022-11-24T17:04:39.678Z,5.00
2022-11-24T17:07:07.759Z,5.00
2022-11-24T17:09:40.142Z,5.00
2022-11-24T17:12:07.658Z,5.00
2022-11-24T17:14:34.787Z,5.00
2022-11-24T17:17:01.786Z,4.90
2022-11-24T17:19:28.622Z,4.90
2022-11-24T17:21:55.542Z,4.90
2022-11-24T17:24:22.202Z,4.80
2022-11-24T17:26:52.421Z,4.80
2022-11-24T17:29:19.150Z,4.80
2022-11-24T17:31:46.062Z,4.80
2022-11-24T17:34:13.258Z,4.70
2022-11-24T17:36:41.451Z,4.70
2022-11-24T17:39:09.490Z,4.60
2022-11-24T17:41:36.182Z,4.60
2022-11-24T17:44:03.005Z,4.50
2022-11-24T17:46:30.591Z,4.50
2022-11-24T17:48:57.613Z,4.40
2022-11-24T17:51:26.332Z,4.40
2022-11-24T17:53:54.266Z,4.30
2022-11-24T17:56:23.635Z,4.30
2022-11-24T17:58:59.131Z,4.30
2022-11-24T18:01:28.437Z,4.30
2022-11-24T18:03:55.442Z,4.40
2022-11-24T18:06:25.553Z,4.30
2022-11-24T18:08:53.967Z,4.40
2022-11-24T18:11:30.177Z,4.40
2022-11-24T18:14:01.334Z,4.30
2022-11-24T18:16:30.363Z,4.40
2022-11-24T18:19:14.860Z,4.40
2022-11-24T18:21:43.697Z,4.30
2022-11-24T18:24:11.586Z,4.30
2022-11-24T18:26:39.270Z,4.20
2022-11-24T18:29:06.342Z,4.20
2022-11-24T18:31:35.503Z,4.10
2022-11-24T18:34:04.095Z,4.10
2022-11-24T18:36:31.129Z,4.00
2022-11-24T18:39:05.308Z,4.00
2022-11-24T18:41:32.531Z,3.90
2022-11-24T18:44:02.397Z,3.80
2022-11-24T18:46:29.296Z,3.80
2022-11-24T18:48:56.096Z,3.70
2022-11-24T18:51:23.446Z,3.70
2022-11-24T18:53:57.970Z,3.70
2022-11-24T18:56:25.468Z,3.60
2022-11-24T18:58:53.764Z,3.60
2022-11-24T19:01:23.538Z,3.50
2022-11-24T19:03:52.991Z,3.40
2022-11-24T19:06:20.983Z,3.40
2022-11-24T19:08:48.678Z,3.30
2022-11-24T19:11:20.731Z,3.30
2022-11-24T19:13:49.008Z,3.30
2022-11-24T19:16:17.595Z,3.20
2022-11-24T19:18:47.641Z,3.20
2022-11-24T19:21:19.549Z,3.20
2022-11-24T19:23:46.454Z,3.20
2022-11-24T19:26:13.153Z,3.10
2022-11-24T19:28:39.871Z,3.10
2022-11-24T19:31:10.138Z,3.10
2022-11-24T19:33:36.785Z,3.00
2022-11-24T19:36:16.814Z,3.10
2022-11-24T19:38:49.378Z,3.10
2022-11-24T19:41:16.619Z,3.10
2022-11-24T19:43:43.602Z,3.10
2022-11-24T19:46:12.901Z,3.10
2022-11-24T19:48:43.147Z,3.10
2022-11-24T19:51:18.678Z,3.00
2022-11-24T19:53:45.903Z,3.00
2022-11-24T19:56:18.765Z,2.90
2022-11-24T19:58:46.335Z,2.90
2022-11-24T20:01:33.635Z,2.90
2022-11-24T20:04:09.280Z,2.90
2022-11-24T20:06:40.763Z,2.90
2022-11-24T20:09:11.114Z,2.90
2022-11-24T20:11:38.879Z,2.90
2022-11-24T20:14:06.405Z,2.90
2022-11-24T20:16:34.454Z,2.90
2022-11-24T20:19:05.781Z,2.90
2022-11-24T20:21:33.637Z,2.90
2022-11-24T20:24:05.200Z,2.90
2022-11-24T20:26:38.202Z,2.90
2022-11-24T20:29:06.035Z,2.80
2022-11-24T20:31:36.182Z,2.80
2022-11-24T20:34:04.045Z,2.80
2022-11-24T20:36:33.266Z,2.80
2022-11-24T20:39:02.439Z,2.70
2022-11-24T20:41:32.623Z,2.70
2022-11-24T20:44:01.632Z,2.70
2022-11-24T20:46:34.244Z,2.70
2022-11-24T20:49:03.422Z,2.70
2022-11-24T20:51:36.608Z,2.70
2022-11-24T20:54:07.239Z,2.60
2022-11-24T20:56:37.150Z,2.60
2022-11-24T20:59:04.850Z,2.60
2022-11-24T21:01:38.818Z,2.60
2022-11-24T21:04:08.060Z,2.50
2022-11-24T21:06:35.739Z,2.50
2022-11-24T21:09:04.293Z,2.50
2022-11-24T21:11:31.873Z,2.50
2022-11-24T21:13:59.413Z,2.40
2022-11-24T21:16:29.629Z,2.40
2022-11-24T21:18:58.283Z,2.40
2022-11-24T21:21:27.935Z,2.40
2022-11-24T21:23:55.033Z,2.30
2022-11-24T21:26:22.195Z,2.30
2022-11-24T21:28:49.275Z,2.30
2022-11-24T21:31:19.793Z,2.30
2022-11-24T21:33:48.685Z,2.30
2022-11-24T21:36:18.561Z,2.30
2022-11-24T21:38:53.487Z,2.30
2022-11-24T21:41:21.048Z,2.30
2022-11-24T21:43:48.619Z,2.30
2022-11-24T21:46:16.152Z,2.30
2022-11-24T21:48:43.352Z,2.30
2022-11-24T21:51:19.302Z,2.20
2022-11-24T21:53:47.184Z,2.20
2022-11-24T21:56:18.869Z,2.20
2022-11-24T21:58:46.653Z,2.20
2022-11-24T22:01:14.648Z,2.20
2022-11-24T22:03:42.131Z,2.20
2022-11-24T22:06:09.753Z,2.20
2022-11-24T22:08:36.903Z,2.10
2022-11-24T22:11:15.460Z,2.10
2022-11-24T22:13:43.597Z,2.10
2022-11-24T22:16:20.654Z,2.10
2022-11-24T22:18:48.310Z,2.10
2022-11-24T22:21:17.888Z,2.00
2022-11-24T22:23:45.176Z,2.00
2022-11-24T22:26:16.347Z,2.00
2022-11-24T22:28:44.403Z,2.00
2022-11-24T22:31:17.211Z,2.00
2022-11-24T22:33:44.967Z,2.00
2022-11-24T22:36:13.494Z,2.00
2022-11-24T22:38:41.404Z,2.00
2022-11-24T22:41:14.707Z,2.00
2022-11-24T22:43:43.168Z,2.00
2022-11-24T22:46:13.030Z,2.00
2022-11-24T22:48:40.921Z,2.00
2022-11-24T22:51:16.050Z,1.90
2022-11-24T22:53:48.712Z,1.90
2022-11-24T22:56:16.860Z,1.80
2022-11-24T22:58:43.994Z,1.80
2022-11-24T23:01:22.362Z,1.80
2022-11-24T23:03:50.807Z,1.80
2022-11-24T23:06:23.505Z,1.70
2022-11-24T23:08:51.771Z,1.70
2022-11-24T23:11:22.909Z,1.60
2022-11-24T23:13:58.071Z,1.60
2022-11-24T23:16:25.350Z,1.60
2022-11-24T23:18:54.091Z,1.60
2022-11-24T23:21:27.147Z,1.50
2022-11-24T23:23:54.761Z,1.50
2022-11-24T23:26:27.344Z,1.50
2022-11-24T23:28:54.718Z,1.50
2022-11-24T23:31:29.086Z,1.40
2022-11-24T23:34:01.808Z,1.40
2022-11-24T23:36:29.634Z,1.30
2022-11-24T23:39:01.238Z,1.30
2022-11-24T23:41:31.758Z,1.30
2022-11-24T23:43:59.238Z,1.30
2022-11-24T23:46:28.325Z,1.30
2022-11-24T23:48:56.338Z,1.30
2022-11-24T23:51:26.075Z,1.20
2022-11-24T23:53:54.176Z,1.20
2022-11-24T23:56:23.803Z,1.20
2022-11-24T23:58:51.916Z,1.30
